Time;durP1;ratioP1;P1;durP2;ratioP2;P2;SDS_P1;SDS_P2;PMS_P1;PMS_P2;Temp;Humidity;BMP_temperature;BMP_pressure;BME280_temperature;BME280_humidity;BME280_pressure;Samples;Min_cycle;Max_cycle;Signal;HPM_P1;HPM_P2
2022/01/29 00:01:05;;;;;;;13.20;3.20;;;;;;;;;;6222523;22;20081;-86
2022/01/29 00:03:31;;;;;;;12.07;3.45;;;;;;;;;;6222537;22;20023;-86
2022/01/29 00:05:58;;;;;;;23.38;3.70;;;;;;;;;;6222886;22;20015;-85
2022/01/29 00:08:24;;;;;;;17.73;3.22;;;;;;;;;;6223552;22;20019;-86
2022/01/29 00:10:55;;;;;;;22.55;3.40;;;;;;;;;;6222811;22;20019;-85
2022/01/29 00:13:21;;;;;;;18.10;3.95;;;;;;;;;;6223805;22;20088;-85
2022/01/29 00:15:46;;;;;;;17.70;3.03;;;;;;;;;;6223628;22;20027;-86
2022/01/29 00:18:12;;;;;;;16.25;3.15;;;;;;;;;;6222985;22;20043;-86
2022/01/29 00:20:38;;;;;;;17.70;3.00;;;;;;;;;;6222865;22;20061;-85
2022/01/29 00:23:03;;;;;;;22.48;3.15;;;;;;;;;;6248158;22;20069;-86
2022/01/29 00:25:29;;;;;;;18.15;3.28;;;;;;;;;;6222866;22;20543;-86
2022/01/29 00:27:57;;;;;;;18.77;3.28;;;;;;;;;;6247026;22;20074;-86
2022/01/29 00:30:29;;;;;;;21.52;4.68;;;;;;;;;;6222833;22;20023;-86
2022/01/29 00:32:55;;;;;;;23.63;3.58;;;;;;;;;;6223849;22;20461;-86
2022/01/29 00:35:21;;;;;;;23.90;4.78;;;;;;;;;;6222356;22;20028;-86
2022/01/29 00:37:47;;;;;;;15.90;3.70;;;;;;;;;;6223207;22;20030;-86
2022/01/29 00:40:13;;;;;;;21.98;3.20;;;;;;;;;;6221328;22;20103;-85
2022/01/29 00:42:39;;;;;;;14.52;3.65;;;;;;;;;;6247234;22;20026;-85
2022/01/29 00:45:06;;;;;;;16.33;3.90;;;;;;;;;;6247297;22;20203;-85
2022/01/29 00:47:32;;;;;;;18.17;3.47;;;;;;;;;;6221852;22;20019;-86
2022/01/29 00:49:57;;;;;;;16.65;3.45;;;;;;;;;;6248076;22;20072;-85
2022/01/29 00:52:23;;;;;;;20.17;3.47;;;;;;;;;;6222177;22;20069;-86
2022/01/29 00:54:49;;;;;;;22.70;3.60;;;;;;;;;;6221941;22;20020;-86
2022/01/29 00:57:15;;;;;;;16.88;3.65;;;;;;;;;;6247717;22;20508;-86
2022/01/29 00:59:41;;;;;;;18.48;4.85;;;;;;;;;;6220717;22;20015;-86
2022/01/29 01:02:08;;;;;;;18.52;4.07;;;;;;;;;;6247295;22;20012;-85
2022/01/29 01:04:38;;;;;;;22.65;3.42;;;;;;;;;;6222752;22;20089;-86
2022/01/29 01:07:04;;;;;;;17.88;3.72;;;;;;;;;;6223056;22;20456;-85
2022/01/29 01:09:29;;;;;;;20.48;4.22;;;;;;;;;;6221883;22;20019;-85
2022/01/29 01:11:55;;;;;;;21.73;3.63;;;;;;;;;;6220344;22;20019;-85
2022/01/29 01:14:21;;;;;;;20.10;5.43;;;;;;;;;;6246859;22;20457;-85
2022/01/29 01:16:46;;;;;;;17.38;3.33;;;;;;;;;;6221527;22;20081;-85
2022/01/29 01:19:12;;;;;;;15.00;3.25;;;;;;;;;;6222396;22;20024;-85
2022/01/29 01:21:38;;;;;;;19.88;3.90;;;;;;;;;;6221221;22;20016;-85
2022/01/29 01:24:04;;;;;;;25.48;4.93;;;;;;;;;;6246425;22;20027;-86
2022/01/29 01:26:29;;;;;;;15.70;4.15;;;;;;;;;;6220804;22;20020;-86
2022/01/29 01:28:55;;;;;;;16.20;4.90;;;;;;;;;;6247205;22;20038;-86
2022/01/29 01:31:21;;;;;;;19.75;4.70;;;;;;;;;;6221278;22;20045;-86
2022/01/29 01:33:48;;;;;;;26.30;4.18;;;;;;;;;;6222905;22;20016;-85
2022/01/29 01:36:16;;;;;;;15.00;3.42;;;;;;;;;;6221545;22;20545;-86
2022/01/29 01:38:48;;;;;;;23.80;4.55;;;;;;;;;;6246791;22;20070;-85
2022/01/29 01:41:22;;;;;;;25.35;3.75;;;;;;;;;;6245860;22;20055;-85
2022/01/29 01:43:48;;;;;;;18.83;4.18;;;;;;;;;;6222705;22;20019;-85
2022/01/29 01:46:13;;;;;;;25.85;5.70;;;;;;;;;;6221311;22;20127;-85
2022/01/29 01:48:39;;;;;;;18.45;4.45;;;;;;;;;;6221698;22;20047;-85
2022/01/29 01:51:06;;;;;;;15.98;4.30;;;;;;;;;;6221503;22;20019;-85
2022/01/29 01:53:31;;;;;;;18.45;5.05;;;;;;;;;;6221613;22;20095;-85
2022/01/29 01:55:57;;;;;;;20.77;4.70;;;;;;;;;;6220648;22;20054;-85
2022/01/29 01:58:23;;;;;;;17.65;3.97;;;;;;;;;;6220129;22;20022;-86
2022/01/29 02:00:49;;;;;;;16.55;3.05;;;;;;;;;;6221341;22;20050;-86
2022/01/29 02:03:14;;;;;;;22.05;4.95;;;;;;;;;;6220533;22;20081;-85
2022/01/29 02:05:40;;;;;;;16.23;4.75;;;;;;;;;;6220330;22;20020;-86
2022/01/29 02:08:08;;;;;;;16.52;3.60;;;;;;;;;;6247173;22;20039;-86
2022/01/29 02:10:33;;;;;;;20.58;4.45;;;;;;;;;;6220612;22;20372;-86
2022/01/29 02:13:03;;;;;;;21.38;4.15;;;;;;;;;;6245291;22;20062;-86
2022/01/29 02:15:29;;;;;;;17.58;3.70;;;;;;;;;;6220711;22;20042;-86
2022/01/29 02:17:55;;;;;;;19.75;3.83;;;;;;;;;;6221329;22;20019;-86
2022/01/29 02:20:26;;;;;;;17.50;3.28;;;;;;;;;;6220361;22;20067;-85
2022/01/29 02:22:53;;;;;;;24.60;4.82;;;;;;;;;;6219664;22;20024;-85
2022/01/29 02:25:39;;;;;;;17.05;4.45;;;;;;;;;;6221377;22;20383;-85
2022/01/29 02:28:10;;;;;;;15.77;3.42;;;;;;;;;;6245749;22;20057;-86
2022/01/29 02:30:39;;;;;;;24.45;3.60;;;;;;;;;;6222836;22;20054;-85
2022/01/29 02:33:07;;;;;;;21.88;4.10;;;;;;;;;;6223173;22;20015;-86
2022/01/29 02:35:37;;;;;;;25.25;5.13;;;;;;;;;;6222795;22;20024;-86
2022/01/29 02:38:03;;;;;;;20.23;3.53;;;;;;;;;;6221326;22;20042;-86
2022/01/29 02:40:34;;;;;;;17.10;3.55;;;;;;;;;;6246112;22;20028;-86
2022/01/29 02:43:10;;;;;;;17.05;3.10;;;;;;;;;;6223324;22;20012;-85
2022/01/29 02:45:36;;;;;;;13.68;3.20;;;;;;;;;;6223365;22;20031;-85
2022/01/29 02:48:02;;;;;;;14.82;3.55;;;;;;;;;;6246832;22;20364;-86
2022/01/29 02:50:27;;;;;;;14.00;3.20;;;;;;;;;;6222262;22;20038;-85
2022/01/29 02:52:53;;;;;;;19.38;3.30;;;;;;;;;;6246987;22;20070;-86
2022/01/29 02:55:19;;;;;;;18.15;3.85;;;;;;;;;;6223806;22;20024;-85
2022/01/29 02:57:44;;;;;;;17.45;4.35;;;;;;;;;;6222469;22;20027;-86
2022/01/29 03:00:11;;;;;;;20.83;3.80;;;;;;;;;;6248591;22;20023;-86
2022/01/29 03:02:37;;;;;;;17.50;3.85;;;;;;;;;;6246683;22;20015;-86
2022/01/29 03:05:03;;;;;;;26.00;4.65;;;;;;;;;;6248487;22;20047;-86
2022/01/29 03:07:28;;;;;;;21.00;4.20;;;;;;;;;;6221958;22;20027;-85
2022/01/29 03:09:54;;;;;;;14.27;4.05;;;;;;;;;;6222611;22;20085;-86
2022/01/29 03:12:20;;;;;;;19.67;3.90;;;;;;;;;;6245519;22;20453;-86
2022/01/29 03:14:45;;;;;;;18.88;3.80;;;;;;;;;;6223614;22;20024;-86
2022/01/29 03:17:11;;;;;;;15.48;4.10;;;;;;;;;;6221994;22;20024;-86
2022/01/29 03:19:37;;;;;;;12.88;3.45;;;;;;;;;;6222130;22;20457;-85
2022/01/29 03:22:03;;;;;;;20.75;3.95;;;;;;;;;;6221985;22;20015;-85
2022/01/29 03:24:29;;;;;;;19.98;4.55;;;;;;;;;;6221832;22;20357;-85
2022/01/29 03:26:54;;;;;;;16.13;3.97;;;;;;;;;;6221243;22;20043;-85
2022/01/29 03:29:20;;;;;;;15.63;3.90;;;;;;;;;;6249215;22;20449;-83
2022/01/29 03:31:46;;;;;;;26.50;5.25;;;;;;;;;;6221958;22;20031;-86
2022/01/29 03:34:11;;;;;;;18.60;4.57;;;;;;;;;;6244765;22;20023;-86
2022/01/29 03:36:37;;;;;;;19.40;4.63;;;;;;;;;;6220150;22;20031;-86
2022/01/29 03:39:03;;;;;;;19.83;4.72;;;;;;;;;;6219791;22;20019;-86
2022/01/29 03:41:30;;;;;;;21.13;4.45;;;;;;;;;;6218557;22;20016;-86
2022/01/29 03:44:01;;;;;;;18.13;4.88;;;;;;;;;;6219926;22;20027;-86
2022/01/29 03:46:26;;;;;;;21.35;4.80;;;;;;;;;;6221548;22;20031;-86
2022/01/29 03:48:52;;;;;;;20.92;4.22;;;;;;;;;;6220303;22;20497;-86
2022/01/29 03:51:18;;;;;;;17.83;4.78;;;;;;;;;;6220583;22;20019;-86
2022/01/29 03:53:43;;;;;;;15.27;5.18;;;;;;;;;;6220933;22;20011;-86
2022/01/29 03:56:10;;;;;;;22.38;5.88;;;;;;;;;;6220076;22;20259;-86
2022/01/29 03:58:35;;;;;;;21.55;4.80;;;;;;;;;;6246215;22;20343;-86
2022/01/29 04:01:01;;;;;;;21.95;4.97;;;;;;;;;;6218934;22;20350;-86
2022/01/29 04:03:27;;;;;;;19.52;5.50;;;;;;;;;;6245322;22;20028;-85
2022/01/29 04:05:52;;;;;;;18.08;5.97;;;;;;;;;;6271979;22;20012;-86
2022/01/29 04:08:19;;;;;;;22.73;6.15;;;;;;;;;;6219670;22;20023;-86
2022/01/29 04:10:47;;;;;;;17.50;5.78;;;;;;;;;;6220283;22;20027;-86
2022/01/29 04:13:14;;;;;;;18.27;6.03;;;;;;;;;;6246273;22;20026;-86
2022/01/29 04:15:39;;;;;;;16.38;6.13;;;;;;;;;;6220379;22;20007;-86
2022/01/29 04:18:05;;;;;;;25.02;7.15;;;;;;;;;;6220190;22;20038;-86
2022/01/29 04:20:31;;;;;;;25.48;6.55;;;;;;;;;;6244673;22;20039;-86
2022/01/29 04:22:57;;;;;;;19.98;6.90;;;;;;;;;;6244352;22;20026;-86
2022/01/29 04:25:23;;;;;;;18.85;7.18;;;;;;;;;;6219094;22;20137;-86
2022/01/29 04:27:49;;;;;;;21.75;7.38;;;;;;;;;;6219576;22;20042;-87
2022/01/29 04:30:27;;;;;;;22.52;7.30;;;;;;;;;;6243016;22;20023;-86
2022/01/29 04:35:19;;;;;;;25.27;6.88;;;;;;;;;;6244161;22;20024;-86
2022/01/29 04:37:45;;;;;;;26.15;8.18;;;;;;;;;;6219469;22;20450;-86
2022/01/29 04:40:11;;;;;;;24.05;7.35;;;;;;;;;;6219053;22;20032;-86
2022/01/29 04:42:37;;;;;;;23.40;6.82;;;;;;;;;;6268084;22;20054;-86
2022/01/29 04:45:03;;;;;;;25.63;6.82;;;;;;;;;;6219515;22;20019;-86
2022/01/29 04:47:29;;;;;;;24.38;6.90;;;;;;;;;;6219223;22;20016;-86
2022/01/29 04:49:54;;;;;;;21.80;9.05;;;;;;;;;;6218895;22;20018;-86
2022/01/29 04:52:20;;;;;;;25.92;6.72;;;;;;;;;;6244132;22;20024;-86
2022/01/29 04:54:46;;;;;;;21.08;7.30;;;;;;;;;;6219763;22;20086;-86
2022/01/29 04:57:11;;;;;;;27.27;8.77;;;;;;;;;;6219769;22;20074;-86
2022/01/29 04:59:37;;;;;;;23.58;8.60;;;;;;;;;;6219171;22;20016;-86
2022/01/29 05:02:03;;;;;;;22.15;7.57;;;;;;;;;;6243103;22;20050;-86
2022/01/29 05:04:29;;;;;;;22.08;8.10;;;;;;;;;;6219569;22;20049;-86
2022/01/29 05:06:54;;;;;;;30.40;10.27;;;;;;;;;;6218523;22;20349;-86
2022/01/29 05:09:20;;;;;;;27.70;8.52;;;;;;;;;;6219466;22;20121;-86
2022/01/29 05:11:49;;;;;;;25.17;9.77;;;;;;;;;;6243585;22;20522;-86
2022/01/29 05:14:29;;;;;;;26.83;9.68;;;;;;;;;;6219143;22;20127;-86
2022/01/29 05:26:48;;;;;;;25.40;9.63;;;;;;;;;;6248199;22;20019;-86
2022/01/29 05:27:55;;;;;;;28.85;10.02;;;;;;;;;;6247298;22;20018;-87
2022/01/29 05:30:21;;;;;;;24.80;9.52;;;;;;;;;;6218428;22;20039;-86
2022/01/29 05:32:47;;;;;;;27.13;9.98;;;;;;;;;;6218495;22;20124;-86
2022/01/29 05:35:12;;;;;;;28.77;9.50;;;;;;;;;;6217858;22;20081;-87
2022/01/29 05:37:38;;;;;;;29.42;10.23;;;;;;;;;;6217853;22;20011;-87
2022/01/29 05:40:04;;;;;;;32.03;10.00;;;;;;;;;;6218367;22;20400;-87
2022/01/29 05:42:30;;;;;;;28.90;10.60;;;;;;;;;;6217711;22;20018;-86
2022/01/29 05:44:56;;;;;;;25.20;11.05;;;;;;;;;;6217767;22;20266;-87
2022/01/29 05:47:21;;;;;;;32.63;11.85;;;;;;;;;;6244354;22;20523;-87
2022/01/29 05:49:47;;;;;;;17.88;9.00;;;;;;;;;;6270982;22;20081;-87
2022/01/29 05:52:13;;;;;;;25.70;11.50;;;;;;;;;;6217901;22;20020;-87
2022/01/29 05:54:38;;;;;;;22.20;11.00;;;;;;;;;;6219433;22;20023;-86
2022/01/29 05:57:04;;;;;;;25.67;10.77;;;;;;;;;;6218312;22;20024;-87
2022/01/29 05:59:34;;;;;;;26.17;10.88;;;;;;;;;;6217103;22;20007;-87
2022/01/29 06:02:00;;;;;;;23.05;10.80;;;;;;;;;;6219500;22;20019;-87
2022/01/29 06:04:26;;;;;;;27.63;9.98;;;;;;;;;;6242393;22;20050;-87
2022/01/29 06:06:52;;;;;;;29.38;11.35;;;;;;;;;;6218817;22;20035;-86
2022/01/29 06:09:17;;;;;;;26.45;10.27;;;;;;;;;;6217995;22;20514;-87
2022/01/29 06:11:43;;;;;;;22.35;10.68;;;;;;;;;;6216754;22;20074;-87
2022/01/29 06:14:09;;;;;;;28.90;11.07;;;;;;;;;;6218691;22;20016;-87
2022/01/29 06:16:35;;;;;;;26.70;11.82;;;;;;;;;;6217668;22;20027;-87
2022/01/29 06:19:01;;;;;;;26.77;10.45;;;;;;;;;;6217432;22;20023;-86
2022/01/29 06:21:26;;;;;;;24.33;11.63;;;;;;;;;;6217839;22;20283;-86
2022/01/29 06:23:52;;;;;;;26.95;12.75;;;;;;;;;;6218230;22;20020;-87
2022/01/29 06:26:18;;;;;;;24.40;12.18;;;;;;;;;;6219546;22;20073;-87
2022/01/29 06:28:44;;;;;;;25.35;11.25;;;;;;;;;;6243862;22;20022;-86
2022/01/29 06:31:09;;;;;;;25.83;11.63;;;;;;;;;;6217508;22;20061;-86
2022/01/29 06:33:36;;;;;;;24.63;12.15;;;;;;;;;;6218481;22;20020;-86
2022/01/29 06:36:02;;;;;;;25.90;11.45;;;;;;;;;;6218001;22;20284;-86
2022/01/29 06:38:28;;;;;;;23.65;11.82;;;;;;;;;;6219859;22;20007;-87
2022/01/29 06:40:53;;;;;;;23.13;11.30;;;;;;;;;;6218200;22;20683;-86
2022/01/29 06:43:19;;;;;;;25.08;12.77;;;;;;;;;;6218694;22;20069;-87
2022/01/29 06:45:46;;;;;;;23.55;11.65;;;;;;;;;;6217822;22;20435;-86
2022/01/29 06:48:12;;;;;;;28.75;12.88;;;;;;;;;;6217297;22;20020;-86
2022/01/29 06:50:38;;;;;;;25.45;11.73;;;;;;;;;;6216465;22;20090;-87
2022/01/29 06:53:05;;;;;;;22.45;12.90;;;;;;;;;;6219162;22;20610;-86
2022/01/29 06:55:31;;;;;;;31.45;13.43;;;;;;;;;;6217454;22;20011;-86
2022/01/29 06:57:57;;;;;;;33.28;12.95;;;;;;;;;;6217773;22;20075;-86
2022/01/29 07:00:23;;;;;;;27.90;14.50;;;;;;;;;;6218110;22;20445;-86
2022/01/29 07:02:48;;;;;;;36.08;15.32;;;;;;;;;;6220876;22;20376;-81
2022/01/29 07:05:14;;;;;;;26.42;13.57;;;;;;;;;;6217271;22;20012;-83
2022/01/29 07:07:40;;;;;;;29.35;13.20;;;;;;;;;;6217585;22;20008;-83
2022/01/29 07:10:08;;;;;;;34.33;15.25;;;;;;;;;;6218122;22;20022;-83
2022/01/29 07:12:37;;;;;;;32.85;10.82;;;;;;;;;;6242809;22;20048;-83
2022/01/29 07:15:04;;;;;;;29.98;15.10;;;;;;;;;;6217967;22;20042;-83
2022/01/29 07:17:30;;;;;;;21.40;12.10;;;;;;;;;;6220276;22;20091;-84
2022/01/29 07:19:56;;;;;;;29.85;14.93;;;;;;;;;;6220689;22;20077;-83
2022/01/29 07:22:22;;;;;;;28.23;13.52;;;;;;;;;;6220730;22;20015;-83
2022/01/29 07:24:48;;;;;;;23.20;12.70;;;;;;;;;;6219456;22;20020;-83
2022/01/29 07:27:14;;;;;;;25.65;15.18;;;;;;;;;;6245561;22;20055;-83
2022/01/29 07:29:39;;;;;;;25.00;14.82;;;;;;;;;;6218994;22;20020;-83
2022/01/29 07:32:06;;;;;;;29.73;14.75;;;;;;;;;;6219869;22;20031;-83
2022/01/29 07:34:32;;;;;;;20.25;11.85;;;;;;;;;;6217322;22;20020;-83
2022/01/29 07:36:58;;;;;;;29.33;15.55;;;;;;;;;;6217529;22;20399;-83
2022/01/29 07:39:25;;;;;;;35.83;17.20;;;;;;;;;;6219612;22;20011;-83
2022/01/29 07:41:52;;;;;;;32.08;16.75;;;;;;;;;;6219891;22;20492;-83
2022/01/29 07:44:18;;;;;;;21.33;11.23;;;;;;;;;;6219127;22;20020;-83
2022/01/29 07:46:44;;;;;;;34.88;17.17;;;;;;;;;;6219805;22;20018;-83
2022/01/29 07:49:10;;;;;;;27.92;15.65;;;;;;;;;;6219321;22;20441;-83
2022/01/29 07:51:36;;;;;;;33.50;16.77;;;;;;;;;;6244395;22;20042;-83
2022/01/29 07:54:02;;;;;;;32.30;15.75;;;;;;;;;;6244583;22;20015;-83
2022/01/29 07:56:28;;;;;;;24.23;13.07;;;;;;;;;;6219833;22;20011;-83
2022/01/29 07:58:54;;;;;;;26.10;14.30;;;;;;;;;;6244957;22;20392;-83
2022/01/29 08:01:20;;;;;;;34.60;16.77;;;;;;;;;;6219627;22;20357;-83
2022/01/29 08:03:52;;;;;;;33.83;18.40;;;;;;;;;;6226565;22;20016;-83
2022/01/29 08:06:19;;;;;;;33.70;15.80;;;;;;;;;;6214844;22;20020;-83
2022/01/29 08:08:45;;;;;;;33.65;17.40;;;;;;;;;;6220237;22;20026;-83
2022/01/29 08:11:12;;;;;;;32.70;17.80;;;;;;;;;;6219518;22;20020;-82
2022/01/29 08:13:38;;;;;;;32.08;16.20;;;;;;;;;;6219441;22;20098;-83
2022/01/29 08:16:04;;;;;;;30.63;16.83;;;;;;;;;;6220296;22;20111;-83
2022/01/29 08:18:30;;;;;;;35.38;18.15;;;;;;;;;;6219672;22;20083;-83
2022/01/29 08:20:55;;;;;;;36.42;17.77;;;;;;;;;;6217089;22;20302;-83
2022/01/29 08:23:21;;;;;;;34.05;16.35;;;;;;;;;;6220711;22;20692;-83
2022/01/29 08:25:48;;;;;;;28.50;15.65;;;;;;;;;;6245228;22;20091;-83
2022/01/29 08:28:13;;;;;;;27.27;16.13;;;;;;;;;;6219873;22;20019;-83
2022/01/29 08:30:39;;;;;;;29.45;15.77;;;;;;;;;;6182641;22;20023;-83
2022/01/29 08:33:08;;;;;;;29.70;17.10;;;;;;;;;;6214505;22;20081;-83
2022/01/29 08:35:34;;;;;;;28.48;16.08;;;;;;;;;;6197951;22;20445;-83
2022/01/29 08:38:00;;;;;;;31.60;16.83;;;;;;;;;;6241139;22;20119;-83
2022/01/29 08:40:26;;;;;;;29.65;15.48;;;;;;;;;;6219235;22;20027;-83
2022/01/29 08:42:53;;;;;;;30.40;16.65;;;;;;;;;;6243888;22;20517;-83
2022/01/29 08:45:18;;;;;;;29.33;15.20;;;;;;;;;;6218455;22;20460;-83
2022/01/29 08:47:45;;;;;;;26.05;14.38;;;;;;;;;;6243897;22;20019;-83
2022/01/29 08:50:11;;;;;;;29.48;16.30;;;;;;;;;;6218069;22;20483;-83
2022/01/29 08:52:38;;;;;;;31.50;15.15;;;;;;;;;;6219183;22;20016;-83
2022/01/29 08:55:06;;;;;;;29.52;15.45;;;;;;;;;;6244892;22;20004;-83
2022/01/29 08:57:32;;;;;;;28.67;15.30;;;;;;;;;;6246196;22;20069;-83
2022/01/29 08:59:58;;;;;;;26.48;14.82;;;;;;;;;;6245278;22;20429;-83
2022/01/29 09:02:24;;;;;;;24.80;13.27;;;;;;;;;;6244745;22;20452;-83
2022/01/29 09:04:52;;;;;;;26.50;14.23;;;;;;;;;;6219381;22;20018;-83
2022/01/29 09:07:17;;;;;;;21.48;12.07;;;;;;;;;;6220749;22;20379;-84
2022/01/29 09:09:45;;;;;;;20.27;11.50;;;;;;;;;;6219293;22;20016;-83
2022/01/29 09:12:12;;;;;;;26.10;12.55;;;;;;;;;;6219106;22;20023;-83
2022/01/29 09:14:38;;;;;;;24.98;13.55;;;;;;;;;;6217244;22;20070;-83
2022/01/29 09:17:03;;;;;;;27.92;14.63;;;;;;;;;;6219145;22;20428;-83
2022/01/29 09:19:29;;;;;;;27.92;15.43;;;;;;;;;;6218713;22;20015;-83
2022/01/29 09:21:55;;;;;;;25.42;12.63;;;;;;;;;;6219098;22;20380;-83
2022/01/29 09:24:21;;;;;;;28.92;15.23;;;;;;;;;;6217854;22;20024;-83
2022/01/29 09:26:46;;;;;;;28.08;13.82;;;;;;;;;;6219248;22;20467;-83
2022/01/29 09:29:12;;;;;;;30.83;15.77;;;;;;;;;;6218618;22;20031;-84
2022/01/29 09:31:38;;;;;;;28.92;15.73;;;;;;;;;;6243846;22;20386;-83
2022/01/29 09:34:03;;;;;;;28.40;16.25;;;;;;;;;;6218581;22;20081;-83
2022/01/29 09:36:29;;;;;;;31.65;14.93;;;;;;;;;;6218992;22;20023;-83
2022/01/29 09:38:55;;;;;;;25.63;14.57;;;;;;;;;;6242853;22;20096;-83
2022/01/29 09:41:24;;;;;;;33.35;16.20;;;;;;;;;;6219037;22;20024;-84
2022/01/29 09:43:49;;;;;;;32.90;16.25;;;;;;;;;;6218835;22;20043;-83
2022/01/29 09:46:16;;;;;;;23.70;12.95;;;;;;;;;;6244401;22;20083;-84
2022/01/29 09:48:44;;;;;;;24.35;13.75;;;;;;;;;;6219281;22;20023;-83
2022/01/29 09:51:14;;;;;;;31.65;15.32;;;;;;;;;;6217400;22;20026;-84
2022/01/29 09:53:43;;;;;;;26.77;15.57;;;;;;;;;;6219463;22;20023;-83
2022/01/29 09:56:13;;;;;;;26.08;13.55;;;;;;;;;;6216793;22;20150;-83
2022/01/29 09:58:40;;;;;;;25.40;13.85;;;;;;;;;;6242708;22;20019;-83
2022/01/29 10:01:06;;;;;;;24.23;14.65;;;;;;;;;;6217997;22;20522;-83
2022/01/29 10:03:32;;;;;;;30.60;16.25;;;;;;;;;;6244789;22;20044;-83
2022/01/29 10:05:58;;;;;;;32.33;15.98;;;;;;;;;;6219418;22;20022;-83
2022/01/29 10:08:24;;;;;;;22.42;11.30;;;;;;;;;;6244803;22;20015;-83
2022/01/29 10:10:58;;;;;;;28.65;15.27;;;;;;;;;;6220256;22;20015;-83
2022/01/29 10:13:34;;;;;;;25.80;14.20;;;;;;;;;;6244727;22;20023;-83
2022/01/29 10:16:19;;;;;;;32.03;14.88;;;;;;;;;;6219650;22;20015;-83
2022/01/29 10:18:47;;;;;;;27.20;14.77;;;;;;;;;;6245159;22;20019;-83
2022/01/29 10:21:24;;;;;;;24.00;14.90;;;;;;;;;;6219420;22;20465;-84
2022/01/29 10:24:01;;;;;;;27.25;16.63;;;;;;;;;;6244084;22;20111;-83
2022/01/29 10:26:29;;;;;;;25.80;15.10;;;;;;;;;;6245645;22;20328;-83
2022/01/29 10:28:56;;;;;;;29.38;15.93;;;;;;;;;;6219307;22;20011;-83
2022/01/29 10:31:22;;;;;;;31.17;15.07;;;;;;;;;;6219100;22;20388;-84
2022/01/29 10:33:47;;;;;;;26.45;13.10;;;;;;;;;;6218714;22;20097;-84
2022/01/29 10:36:21;;;;;;;29.45;16.23;;;;;;;;;;6219722;22;20020;-83
2022/01/29 10:38:55;;;;;;;27.33;15.50;;;;;;;;;;6219863;22;20090;-84
2022/01/29 10:41:31;;;;;;;26.58;14.70;;;;;;;;;;6219748;22;20077;-84
2022/01/29 10:44:14;;;;;;;25.63;14.77;;;;;;;;;;6244397;22;20335;-83
2022/01/29 10:46:45;;;;;;;24.95;15.43;;;;;;;;;;6246991;22;20065;-83
2022/01/29 10:49:21;;;;;;;27.95;15.98;;;;;;;;;;6218920;22;20484;-85
2022/01/29 10:52:14;;;;;;;17.83;9.63;;;;;;;;;;6219130;22;20073;-84
2022/01/29 10:54:44;;;;;;;22.75;13.80;;;;;;;;;;6215474;22;20023;-84
2022/01/29 10:57:18;;;;;;;25.17;13.57;;;;;;;;;;6218867;22;20440;-84
2022/01/29 10:59:51;;;;;;;22.52;13.27;;;;;;;;;;6245221;22;20015;-84
2022/01/29 11:02:19;;;;;;;25.73;14.27;;;;;;;;;;6242384;22;20020;-84
2022/01/29 11:04:45;;;;;;;23.83;13.15;;;;;;;;;;6219124;22;20022;-84
2022/01/29 11:07:17;;;;;;;21.90;12.73;;;;;;;;;;6219371;22;20020;-85
2022/01/29 11:09:45;;;;;;;23.67;13.32;;;;;;;;;;6220688;22;20027;-84
2022/01/29 11:12:12;;;;;;;17.73;11.30;;;;;;;;;;6218637;22;20023;-85
2022/01/29 11:14:41;;;;;;;23.65;12.15;;;;;;;;;;6219696;22;20047;-85
2022/01/29 11:17:09;;;;;;;21.35;12.98;;;;;;;;;;6221165;22;20461;-85
2022/01/29 11:19:35;;;;;;;19.73;12.43;;;;;;;;;;6245713;22;20043;-85
2022/01/29 11:22:06;;;;;;;20.02;12.30;;;;;;;;;;6219001;22;20509;-84
2022/01/29 11:24:33;;;;;;;18.23;11.27;;;;;;;;;;6244634;22;20046;-84
2022/01/29 11:26:59;;;;;;;17.98;11.80;;;;;;;;;;6219562;22;20056;-84
2022/01/29 11:29:31;;;;;;;19.25;12.45;;;;;;;;;;6219183;22;20351;-85
2022/01/29 11:32:21;;;;;;;17.30;11.32;;;;;;;;;;6220467;22;20019;-85
2022/01/29 11:35:12;;;;;;;20.67;11.63;;;;;;;;;;6245528;22;20207;-84
2022/01/29 11:37:42;;;;;;;22.50;13.05;;;;;;;;;;6244976;22;20028;-85
2022/01/29 11:40:15;;;;;;;18.17;11.02;;;;;;;;;;6245499;22;20102;-85
2022/01/29 11:42:56;;;;;;;18.75;12.25;;;;;;;;;;6218645;22;20050;-84
2022/01/29 11:45:40;;;;;;;18.58;11.38;;;;;;;;;;6219600;22;20405;-84
2022/01/29 11:48:07;;;;;;;18.33;12.85;;;;;;;;;;6220727;22;20073;-84
2022/01/29 11:50:33;;;;;;;18.80;11.93;;;;;;;;;;6244983;22;20099;-84
2022/01/29 11:53:00;;;;;;;15.95;10.52;;;;;;;;;;6268465;22;20012;-84
2022/01/29 11:55:44;;;;;;;16.15;10.75;;;;;;;;;;6219322;22;20047;-85
2022/01/29 11:58:29;;;;;;;14.15;9.68;;;;;;;;;;6242570;22;20475;-85
2022/01/29 12:00:56;;;;;;;14.57;10.70;;;;;;;;;;6244310;22;20067;-85
2022/01/29 12:03:45;;;;;;;16.10;11.25;;;;;;;;;;6219898;22;20031;-84
2022/01/29 12:06:24;;;;;;;13.45;9.50;;;;;;;;;;6272470;22;20035;-85
2022/01/29 12:09:06;;;;;;;14.00;8.88;;;;;;;;;;6221675;22;20034;-85
2022/01/29 12:11:38;;;;;;;17.13;12.73;;;;;;;;;;6218629;22;20011;-85
2022/01/29 12:14:13;;;;;;;14.20;10.50;;;;;;;;;;6219762;22;20197;-86
2022/01/29 12:16:51;;;;;;;10.40;7.97;;;;;;;;;;6245538;22;20031;-85
2022/01/29 12:19:37;;;;;;;12.77;9.23;;;;;;;;;;6218564;22;20024;-85
2022/01/29 12:22:13;;;;;;;11.60;8.68;;;;;;;;;;6243082;22;20073;-85
2022/01/29 12:24:41;;;;;;;12.75;9.20;;;;;;;;;;6218166;22;20019;-85
2022/01/29 12:27:07;;;;;;;13.25;8.32;;;;;;;;;;6218940;22;20031;-85
2022/01/29 12:29:33;;;;;;;14.20;11.13;;;;;;;;;;6217099;22;20396;-84
2022/01/29 12:31:59;;;;;;;14.40;8.23;;;;;;;;;;6217963;22;20026;-83
2022/01/29 12:34:27;;;;;;;11.93;9.60;;;;;;;;;;6217248;22;20018;-84
2022/01/29 12:37:06;;;;;;;12.48;9.43;;;;;;;;;;6218490;22;20215;-85
2022/01/29 12:39:32;;;;;;;14.40;10.40;;;;;;;;;;6218076;22;20453;-85
2022/01/29 12:42:05;;;;;;;13.23;8.15;;;;;;;;;;6242656;22;20050;-84
2022/01/29 12:44:31;;;;;;;11.85;9.02;;;;;;;;;;6220557;22;20049;-83
2022/01/29 12:46:57;;;;;;;12.48;9.32;;;;;;;;;;6244536;22;20016;-84
2022/01/29 12:49:23;;;;;;;12.15;9.30;;;;;;;;;;6219119;22;20113;-83
2022/01/29 12:51:58;;;;;;;12.63;8.82;;;;;;;;;;6243739;22;20047;-83
2022/01/29 12:54:26;;;;;;;13.48;9.10;;;;;;;;;;6217862;22;20404;-83
2022/01/29 12:56:56;;;;;;;14.32;8.52;;;;;;;;;;6218756;22;20306;-83
2022/01/29 12:59:21;;;;;;;12.05;8.32;;;;;;;;;;6218300;22;20059;-85
2022/01/29 13:01:49;;;;;;;10.32;7.75;;;;;;;;;;6218790;22;20023;-84
2022/01/29 13:04:18;;;;;;;10.07;8.07;;;;;;;;;;6219821;22;20020;-84
2022/01/29 13:06:45;;;;;;;14.02;8.68;;;;;;;;;;6219747;22;20330;-84
2022/01/29 13:09:23;;;;;;;10.75;8.10;;;;;;;;;;6218477;22;20024;-84
2022/01/29 13:12:02;;;;;;;14.65;9.02;;;;;;;;;;6218215;22;20011;-85
2022/01/29 13:14:29;;;;;;;11.65;7.85;;;;;;;;;;6221173;22;20100;-83
2022/01/29 13:16:57;;;;;;;11.93;7.72;;;;;;;;;;6218825;22;20011;-84
2022/01/29 13:19:24;;;;;;;12.50;7.95;;;;;;;;;;6218799;22;20047;-84
2022/01/29 13:21:50;;;;;;;11.05;7.25;;;;;;;;;;6218159;22;20111;-84
2022/01/29 13:24:28;;;;;;;10.98;7.47;;;;;;;;;;6216821;22;20016;-84
2022/01/29 13:27:07;;;;;;;8.05;5.45;;;;;;;;;;6243310;22;20070;-84
2022/01/29 13:29:34;;;;;;;11.73;8.30;;;;;;;;;;6243524;22;20035;-86
2022/01/29 13:32:05;;;;;;;9.20;6.47;;;;;;;;;;6215441;22;20072;-85
2022/01/29 13:34:33;;;;;;;7.25;6.38;;;;;;;;;;6216820;22;20033;-85
2022/01/29 13:36:59;;;;;;;8.65;6.07;;;;;;;;;;6243763;22;20051;-85
2022/01/29 13:39:26;;;;;;;7.55;5.45;;;;;;;;;;6217616;22;20488;-84
2022/01/29 13:42:06;;;;;;;8.63;6.35;;;;;;;;;;6243819;22;20016;-85
2022/01/29 13:44:32;;;;;;;7.88;6.00;;;;;;;;;;6241864;22;20065;-84
2022/01/29 13:47:09;;;;;;;7.28;4.55;;;;;;;;;;6217176;22;20015;-83
2022/01/29 13:49:36;;;;;;;6.70;5.22;;;;;;;;;;6217692;22;20015;-84
2022/01/29 13:52:15;;;;;;;7.60;4.30;;;;;;;;;;6217645;22;20449;-86
2022/01/29 13:54:41;;;;;;;5.47;4.40;;;;;;;;;;6243767;22;20019;-84
2022/01/29 13:57:08;;;;;;;5.43;3.83;;;;;;;;;;6217364;22;20085;-85
2022/01/29 13:59:35;;;;;;;5.03;4.00;;;;;;;;;;6216654;22;20042;-84
2022/01/29 14:02:04;;;;;;;5.10;3.85;;;;;;;;;;6218309;22;20024;-84
2022/01/29 14:04:43;;;;;;;4.13;3.72;;;;;;;;;;6217988;22;20757;-83
2022/01/29 14:07:14;;;;;;;4.10;3.53;;;;;;;;;;6225563;22;20024;-85
2022/01/29 14:13:14;;;;;;;4.18;3.75;;;;;;;;;;6104384;23;21692;-83
2022/01/29 14:15:40;;;;;;;5.65;3.40;;;;;;;;;;6067102;23;20021;-84
2022/01/29 14:22:47;;;;;;;2.80;2.60;;;;;;;;;;5992199;23;20139;-85
2022/01/29 14:25:18;;;;;;;2.83;2.45;;;;;;;;;;6066567;23;20077;-84
2022/01/29 14:27:44;;;;;;;4.22;3.55;;;;;;;;;;6058431;23;20022;-84
2022/01/29 14:30:16;;;;;;;2.55;2.30;;;;;;;;;;6052888;23;20427;-85
2022/01/29 14:32:45;;;;;;;6.00;3.00;;;;;;;;;;6080832;23;20017;-85
2022/01/29 14:35:15;;;;;;;3.78;3.47;;;;;;;;;;6055520;23;20081;-85
2022/01/29 14:37:41;;;;;;;3.92;3.08;;;;;;;;;;6215718;22;20016;-82
2022/01/29 14:40:09;;;;;;;4.13;2.40;;;;;;;;;;6218472;22;20016;-83
2022/01/29 14:42:37;;;;;;;2.92;2.67;;;;;;;;;;6217957;22;20098;-83
2022/01/29 14:45:05;;;;;;;3.08;2.75;;;;;;;;;;6200640;22;20012;-83
2022/01/29 14:47:31;;;;;;;3.53;3.05;;;;;;;;;;6244751;22;20039;-84
2022/01/29 14:49:57;;;;;;;2.75;2.55;;;;;;;;;;6245905;22;20012;-84